RKSO/OSN METAR and TAF weather

Enter ICAO airport designator
Station Type Date Time Source
RKSO METAR 2023/02/05 12:55 UTC NOAA

RKSO 051255Z 00000KT 5SM BR CLR M03/M03 A3028 RMK AO2A SLP252 ALSTG/SLP ESTMD T10331034 $


Station Type Date Time Source
RKSO Decoded METAR 2023/02/05 12:55 UTC NOAA

Osan Ab, Korea, South (RKSO) 37-06N 127-02E 12M
Feb 05, 2023 - 07:55 AM EST / 2023.02.05 1255 UTC
Wind: Calm:0
Visibility: 5 mile(s):0
Sky conditions: clear
Weather: mist
Temperature: 26.1 F (-3.3 C)
Dew Point: 25.9 F (-3.4 C)
Relative Humidity: 99%
Pressure (altimeter): 30.28 in. Hg (1025 hPa)
ob: RKSO 051255Z 00000KT 5SM BR CLR M03/M03 A3028 RMK AO2A SLP252 ALSTG/SLP ESTMD T10331034
cycle: 13

Station Type Date Time Source
RKSO TAF 2023/02/05 13:06 UTC NOAA

TAF TAF RKSO 051300Z 0513/0619 VRB06KT 8000 BR SKC QNH3027INS
BECMG 0517/0518 VRB06KT 3200 BR SCT200 QNH3026INS
BECMG 0601/0602 VRB06KT 8000 HZ SCT200 QNH3018INS TX07/0605Z TNM04/0521Z

Example: see airport list